createdAt,value
2023-03-17T00:01:09.799Z,71.83
2023-03-17T00:03:38.676Z,69.00
2023-03-17T00:06:05.833Z,58.33
2023-03-17T00:08:34.787Z,63.73
2023-03-17T00:11:01.893Z,57.03
2023-03-17T00:13:28.934Z,61.93
2023-03-17T00:15:59.665Z,62.00
2023-03-17T00:18:26.247Z,65.57
2023-03-17T00:20:52.774Z,59.07
2023-03-17T00:23:21.879Z,57.97
2023-03-17T00:25:49.097Z,54.63
2023-03-17T00:28:24.836Z,59.37
2023-03-17T00:30:57.456Z,59.30
2023-03-17T00:33:26.951Z,61.03
2023-03-17T00:35:54.266Z,60.17
2023-03-17T00:38:21.896Z,56.57
2023-03-17T00:40:48.814Z,61.73
2023-03-17T00:43:15.349Z,55.43
2023-03-17T00:45:42.509Z,53.10
2023-03-17T00:48:15.006Z,54.33
2023-03-17T00:50:42.585Z,48.93
2023-03-17T00:53:15.389Z,66.53
2023-03-17T00:55:43.513Z,58.67
2023-03-17T00:58:14.895Z,61.37
2023-03-17T01:00:41.480Z,56.53
2023-03-17T01:03:11.463Z,61.00
2023-03-17T01:05:38.669Z,62.07
2023-03-17T01:08:05.943Z,55.50
2023-03-17T01:10:32.667Z,53.63
2023-03-17T01:12:59.622Z,54.87
2023-03-17T01:15:30.026Z,58.07
2023-03-17T06:04:07.867Z,51.80
2023-03-17T06:06:34.766Z,46.67
2023-03-17T06:09:01.598Z,42.33
2023-03-17T06:11:28.329Z,43.37
2023-03-17T06:13:54.856Z,41.03
2023-03-17T06:16:21.444Z,43.43
2023-03-17T06:18:48.663Z,32.77
2023-03-17T06:21:15.677Z,37.77
2023-03-17T06:23:42.300Z,34.83
2023-03-17T06:26:08.993Z,50.83
2023-03-17T06:28:35.819Z,40.53
2023-03-17T06:31:04.135Z,35.47
2023-03-17T06:33:32.683Z,38.67
2023-03-17T06:36:00.536Z,39.37
2023-03-17T06:38:27.552Z,43.13
2023-03-17T06:40:54.038Z,36.70
2023-03-17T06:43:22.156Z,34.53
2023-03-17T06:45:48.940Z,32.87
2023-03-17T06:48:15.457Z,33.43
2023-03-17T06:50:42.052Z,32.83
2023-03-17T06:53:08.564Z,36.40
2023-03-17T06:55:35.191Z,37.93
2023-03-17T06:58:03.096Z,33.23
2023-03-17T07:00:30.403Z,41.00
2023-03-17T07:02:57.763Z,31.97
2023-03-17T07:05:24.381Z,28.27
2023-03-17T07:07:50.951Z,26.87
2023-03-17T07:10:18.104Z,31.40
2023-03-17T07:12:45.312Z,32.50
2023-03-17T07:15:12.629Z,33.93
2023-03-17T07:17:39.335Z,34.17
2023-03-17T07:20:06.532Z,35.13
2023-03-17T07:22:33.156Z,34.50
2023-03-17T07:24:59.976Z,39.67
2023-03-17T07:27:26.663Z,39.37
2023-03-17T07:29:53.455Z,34.47
2023-03-17T07:32:20.185Z,37.90
2023-03-17T07:34:47.032Z,35.33
2023-03-17T07:37:13.637Z,36.47
2023-03-17T07:39:40.935Z,27.87
2023-03-17T07:42:08.723Z,31.03
2023-03-17T07:44:36.365Z,33.00
2023-03-17T07:47:07.638Z,32.17
2023-03-17T07:49:41.281Z,26.93
2023-03-17T07:52:10.487Z,28.83
2023-03-17T07:54:37.691Z,28.17
2023-03-17T07:57:05.079Z,34.17
2023-03-17T07:59:31.952Z,29.03
2023-03-17T08:02:00.239Z,32.70
2023-03-17T08:04:27.683Z,22.63
2023-03-17T08:06:54.632Z,34.93
2023-03-17T08:09:22.340Z,25.33
2023-03-17T08:11:49.543Z,26.27
2023-03-17T08:14:16.373Z,27.53
2023-03-17T08:16:42.981Z,28.10
2023-03-17T08:19:11.048Z,29.97
2023-03-17T08:21:38.087Z,29.57
2023-03-17T08:24:05.322Z,23.60
2023-03-17T08:26:33.880Z,22.23
2023-03-17T08:29:01.473Z,26.07
2023-03-17T08:31:31.393Z,21.17
2023-03-17T08:33:58.674Z,22.53
2023-03-17T08:36:26.225Z,16.73
2023-03-17T08:38:53.031Z,22.67
2023-03-17T08:41:22.941Z,16.77
2023-03-17T08:43:51.094Z,14.13
2023-03-17T08:46:27.211Z,14.47
2023-03-17T08:48:56.394Z,13.10
2023-03-17T08:51:25.445Z,14.13
2023-03-17T08:53:53.253Z,11.70
2023-03-17T08:56:20.037Z,15.97
2023-03-17T08:58:48.566Z,14.53
2023-03-17T09:01:15.846Z,10.90
2023-03-17T09:03:43.189Z,14.53
2023-03-17T09:06:12.469Z,14.07
2023-03-17T09:08:44.669Z,12.00
2023-03-17T09:11:15.213Z,15.63
2023-03-17T09:13:42.088Z,10.23
2023-03-17T09:16:09.065Z,10.37
2023-03-17T09:18:36.145Z,12.87
2023-03-17T09:21:03.654Z,17.60
2023-03-17T09:23:30.960Z,13.40
2023-03-17T09:25:57.682Z,12.70
2023-03-17T09:28:24.810Z,13.90
2023-03-17T09:30:51.713Z,14.83
2023-03-17T09:33:18.686Z,12.20
2023-03-17T09:35:45.544Z,11.87
2023-03-17T09:38:12.904Z,13.90
2023-03-17T09:40:51.440Z,12.70
2023-03-17T09:43:29.047Z,10.10
2023-03-17T09:45:56.140Z,12.57
2023-03-17T09:48:26.102Z,10.43
2023-03-17T09:50:55.729Z,10.87
2023-03-17T09:53:28.565Z,10.67
2023-03-17T09:55:58.579Z,8.97
2023-03-17T09:58:31.289Z,9.83
2023-03-17T10:00:58.801Z,8.30
2023-03-17T10:03:25.832Z,12.20
2023-03-17T10:05:52.814Z,8.70
2023-03-17T10:08:31.701Z,12.77
2023-03-17T10:10:58.690Z,8.67
2023-03-17T10:13:47.230Z,13.77
2023-03-17T10:16:18.768Z,12.30
2023-03-17T10:18:52.182Z,9.90
2023-03-17T10:21:24.292Z,9.53
2023-03-17T10:23:51.229Z,11.20
2023-03-17T10:26:40.054Z,12.20
2023-03-17T10:29:17.584Z,10.67
2023-03-17T10:31:44.872Z,18.40
2023-03-17T10:34:20.451Z,15.57
2023-03-17T10:36:53.434Z,11.90
2023-03-17T10:39:23.075Z,14.03
2023-03-17T10:42:00.341Z,10.53
2023-03-17T10:44:56.309Z,10.53
2023-03-17T10:47:38.270Z,12.37
2023-03-17T10:50:23.055Z,16.40
2023-03-17T10:52:58.023Z,12.70
2023-03-17T10:55:29.336Z,8.57
2023-03-17T10:58:16.786Z,13.13
2023-03-17T11:00:58.455Z,16.23
2023-03-17T11:03:28.630Z,12.10
2023-03-17T11:05:56.791Z,11.60
2023-03-17T11:08:24.051Z,12.23
2023-03-17T11:10:56.705Z,17.13
2023-03-17T11:13:28.966Z,13.77
2023-03-17T11:16:24.802Z,15.53
2023-03-17T11:18:55.122Z,14.43
2023-03-17T11:21:52.506Z,10.03
2023-03-17T11:24:23.009Z,13.50
2023-03-17T11:27:00.057Z,10.07
2023-03-17T11:29:57.682Z,7.17
2023-03-17T11:32:44.527Z,17.10
2023-03-17T11:35:14.190Z,15.63
2023-03-17T11:37:49.035Z,15.17
2023-03-17T11:40:20.648Z,11.70
2023-03-17T11:42:59.365Z,11.67
2023-03-17T11:46:20.166Z,8.87
2023-03-17T11:49:24.991Z,13.77
2023-03-17T11:51:59.224Z,16.67
2023-03-17T11:54:41.474Z,13.00
2023-03-17T11:57:32.943Z,13.23
2023-03-17T12:00:07.141Z,15.27
2023-03-17T12:02:39.442Z,17.87
2023-03-17T12:05:10.339Z,11.20
2023-03-17T12:07:42.376Z,16.70
2023-03-17T12:10:22.597Z,10.93
2023-03-17T12:13:27.090Z,19.83
2023-03-17T12:15:58.482Z,14.17
2023-03-17T12:18:39.823Z,15.43
2023-03-17T12:21:12.066Z,10.60
2023-03-17T12:24:04.388Z,12.33
2023-03-17T12:26:35.587Z,14.23
2023-03-17T12:29:15.390Z,11.53
2023-03-17T12:31:47.160Z,11.33
2023-03-17T12:34:20.450Z,14.43
2023-03-17T12:36:49.042Z,13.33
2023-03-17T12:39:21.908Z,13.23
2023-03-17T12:42:01.709Z,13.83
2023-03-17T12:45:19.797Z,12.50
2023-03-17T12:48:42.304Z,13.63
2023-03-17T12:51:24.968Z,17.33
2023-03-17T12:53:52.515Z,16.10
2023-03-17T12:56:30.909Z,19.87
2023-03-17T12:59:06.719Z,18.07
2023-03-17T13:01:40.746Z,15.73
2023-03-17T13:04:13.166Z,12.40
2023-03-17T13:06:44.997Z,14.30
2023-03-17T13:09:38.507Z,15.33
2023-03-17T13:12:06.934Z,12.10
2023-03-17T13:14:44.723Z,20.13
2023-03-17T13:17:17.594Z,15.07
2023-03-17T13:20:11.378Z,10.47
2023-03-17T13:22:40.885Z,10.07
2023-03-17T13:25:35.390Z,9.50
2023-03-17T13:28:13.865Z,11.87
2023-03-17T13:30:40.488Z,11.37
2023-03-17T13:33:09.792Z,9.93
2023-03-17T13:35:41.814Z,12.23
2023-03-17T13:38:27.199Z,12.30
2023-03-17T13:41:22.584Z,11.90
2023-03-17T13:44:15.710Z,9.07
2023-03-17T13:46:49.109Z,14.27
2023-03-17T13:49:22.682Z,8.73
2023-03-17T13:52:00.256Z,14.97
2023-03-17T13:54:28.077Z,13.57
2023-03-17T13:56:56.382Z,15.23
2023-03-17T14:00:02.016Z,12.60
2023-03-17T14:02:33.929Z,11.80
2023-03-17T14:05:04.639Z,15.07
2023-03-17T14:07:38.858Z,17.03
2023-03-17T14:10:05.753Z,14.53
2023-03-17T14:12:39.698Z,12.70
2023-03-17T14:15:15.462Z,11.53
2023-03-17T14:17:50.584Z,15.83
2023-03-17T14:20:17.121Z,12.30
2023-03-17T14:22:46.049Z,12.03
2023-03-17T14:25:18.412Z,14.37
2023-03-17T14:27:48.469Z,13.30
2023-03-17T14:30:34.357Z,16.80
2023-03-17T14:33:04.698Z,15.17
2023-03-17T14:35:39.084Z,18.13
2023-03-17T14:38:22.105Z,12.57
2023-03-17T14:40:49.923Z,17.80
2023-03-17T14:43:16.817Z,17.63
2023-03-17T14:45:48.535Z,13.97
2023-03-17T14:48:18.261Z,18.33
2023-03-17T14:51:20.968Z,14.53
2023-03-17T14:53:48.800Z,18.53
2023-03-17T14:56:15.692Z,14.77
2023-03-17T14:58:44.017Z,13.53
2023-03-17T15:01:39.725Z,18.77
2023-03-17T15:04:06.592Z,19.37
2023-03-17T15:06:37.547Z,16.40
2023-03-17T15:09:17.627Z,16.37
2023-03-17T15:11:44.794Z,18.13
2023-03-17T15:14:35.508Z,19.37
2023-03-17T15:17:04.403Z,21.80
2023-03-17T15:19:49.200Z,20.20
2023-03-17T15:22:26.025Z,18.93
2023-03-17T15:25:01.348Z,22.27
2023-03-17T15:27:29.420Z,19.07
2023-03-17T15:29:56.474Z,23.43
2023-03-17T15:32:25.753Z,19.23
2023-03-17T15:34:54.716Z,16.13
2023-03-17T15:37:27.008Z,23.60
2023-03-17T15:39:55.212Z,21.37
2023-03-17T15:42:25.332Z,19.23
2023-03-17T15:44:52.528Z,23.93
2023-03-17T15:47:21.161Z,17.83
2023-03-17T15:49:49.704Z,17.27
2023-03-17T15:52:27.349Z,18.63
2023-03-17T15:54:56.222Z,20.47
2023-03-17T15:57:23.085Z,18.87
2023-03-17T15:59:49.546Z,20.03
2023-03-17T16:02:27.478Z,16.97
2023-03-17T16:04:55.154Z,17.43
2023-03-17T16:07:22.355Z,15.87
2023-03-17T16:09:48.806Z,18.80
2023-03-17T16:12:15.894Z,17.60
2023-03-17T16:14:43.056Z,19.63
2023-03-17T16:17:28.716Z,14.90
2023-03-17T16:19:56.223Z,15.63
2023-03-17T16:22:28.869Z,19.07
2023-03-17T16:24:55.439Z,20.87
2023-03-17T16:27:22.362Z,15.30
2023-03-17T16:29:49.025Z,22.33
2023-03-17T16:32:15.660Z,20.63
2023-03-17T16:34:42.586Z,17.17
2023-03-17T16:37:14.985Z,17.13
2023-03-17T16:39:42.473Z,19.30
2023-03-17T16:42:24.416Z,25.33
2023-03-17T16:44:51.100Z,21.27
2023-03-17T16:47:17.784Z,21.47
2023-03-17T16:49:44.417Z,17.57
2023-03-17T16:52:12.112Z,14.50
2023-03-17T16:54:38.775Z,16.47
2023-03-17T16:57:07.772Z,17.87
2023-03-17T16:59:34.708Z,20.73
2023-03-17T17:02:01.975Z,33.10
2023-03-17T17:04:28.749Z,15.77
2023-03-17T17:06:56.752Z,19.27
2023-03-17T17:09:23.342Z,15.87
2023-03-17T17:11:49.917Z,16.83
2023-03-17T17:14:16.513Z,14.87
2023-03-17T17:16:43.179Z,16.90
2023-03-17T17:19:16.228Z,21.87
2023-03-17T17:21:43.637Z,15.97
2023-03-17T17:24:12.234Z,14.03
2023-03-17T17:26:38.924Z,17.73
2023-03-17T17:29:05.772Z,21.73
2023-03-17T17:31:32.313Z,17.83
2023-03-17T17:33:58.805Z,14.30
2023-03-17T17:36:26.134Z,17.33
2023-03-17T17:38:52.668Z,17.67
2023-03-17T17:41:21.558Z,14.47
2023-03-17T17:43:48.925Z,23.40
2023-03-17T17:46:21.505Z,18.10
2023-03-17T17:48:49.058Z,19.13
2023-03-17T17:51:15.921Z,20.73
2023-03-17T17:53:42.408Z,15.13
2023-03-17T17:56:14.105Z,21.77
2023-03-17T17:58:40.600Z,15.77
2023-03-17T18:01:07.298Z,15.67
2023-03-17T18:03:34.023Z,21.47
2023-03-17T18:06:01.115Z,15.47
2023-03-17T18:08:27.751Z,20.73
2023-03-17T18:10:55.877Z,15.93
2023-03-17T18:13:22.433Z,20.87
2023-03-17T18:15:49.434Z,22.30
2023-03-17T18:18:16.019Z,15.90
2023-03-17T18:20:42.613Z,22.43
2023-03-17T18:23:09.263Z,20.30
2023-03-17T18:25:37.066Z,16.93
2023-03-17T18:28:03.702Z,16.83
2023-03-17T18:30:31.908Z,16.90
2023-03-17T18:33:04.082Z,21.63
2023-03-17T18:35:30.921Z,23.07
2023-03-17T18:37:57.949Z,15.90
2023-03-17T18:40:25.640Z,20.53
2023-03-17T18:42:52.271Z,34.73
2023-03-17T18:45:18.816Z,18.80
2023-03-17T18:47:45.303Z,24.87
2023-03-17T18:50:13.668Z,20.30
2023-03-17T18:52:41.311Z,19.07
2023-03-17T18:55:08.922Z,21.60
2023-03-17T18:57:35.719Z,19.13
2023-03-17T19:00:02.306Z,27.43
2023-03-17T19:02:29.090Z,24.90
2023-03-17T19:04:55.988Z,31.50
2023-03-17T19:07:22.580Z,25.80
2023-03-17T19:09:49.286Z,28.47
2023-03-17T19:12:15.776Z,24.83
2023-03-17T19:14:42.620Z,21.73
2023-03-17T19:17:09.247Z,21.70
2023-03-17T19:19:36.711Z,23.87
2023-03-17T19:22:03.973Z,21.00
2023-03-17T19:24:31.593Z,19.70
2023-03-17T19:26:58.213Z,21.73
2023-03-17T19:29:24.810Z,22.60
2023-03-17T19:31:51.282Z,28.67
2023-03-17T19:34:17.824Z,23.13
2023-03-17T19:36:47.274Z,21.37
2023-03-17T19:39:14.564Z,24.00
2023-03-17T19:41:41.065Z,19.10
2023-03-17T19:44:07.722Z,21.97
2023-03-17T19:46:36.534Z,24.00
2023-03-17T19:49:04.719Z,25.37
2023-03-17T19:51:31.919Z,27.40
2023-03-17T19:53:58.576Z,19.67
2023-03-17T19:56:25.118Z,22.57
2023-03-17T19:58:52.044Z,25.00
2023-03-17T20:01:18.782Z,23.77
2023-03-17T20:03:46.195Z,26.73
2023-03-17T20:06:13.768Z,32.77
2023-03-17T20:08:42.735Z,25.40
2023-03-17T20:11:11.533Z,31.43
2023-03-17T20:13:38.878Z,26.63
2023-03-17T20:16:07.061Z,28.80
2023-03-17T20:18:34.038Z,24.00
2023-03-17T20:21:05.359Z,34.73
2023-03-17T20:23:32.197Z,28.67
2023-03-17T20:25:58.915Z,29.80
2023-03-17T20:28:25.499Z,23.87
2023-03-17T20:30:52.460Z,28.10
2023-03-17T20:33:19.026Z,30.77
2023-03-17T20:35:48.933Z,28.00
2023-03-17T20:38:15.484Z,21.93
2023-03-17T20:40:42.305Z,22.70
2023-03-17T20:43:09.459Z,24.90
2023-03-17T20:45:37.006Z,28.77
2023-03-17T20:48:05.025Z,26.03
2023-03-17T20:50:32.889Z,28.17
2023-03-17T20:52:59.846Z,25.33
2023-03-17T20:55:26.346Z,25.03
2023-03-17T20:57:52.901Z,26.43
2023-03-17T21:00:21.237Z,28.27
2023-03-17T21:02:50.630Z,25.67
2023-03-17T21:05:23.106Z,30.80
2023-03-17T21:07:50.616Z,22.63
2023-03-17T21:10:17.953Z,20.33
2023-03-17T21:12:44.902Z,25.10
2023-03-17T21:15:12.961Z,20.53
2023-03-17T21:17:39.958Z,23.20
2023-03-17T21:20:07.470Z,18.87
2023-03-17T21:22:36.158Z,24.20
2023-03-17T21:25:04.101Z,26.37
2023-03-17T21:27:30.678Z,23.53
2023-03-17T21:29:57.334Z,24.90
2023-03-17T21:32:24.498Z,23.83
2023-03-17T21:34:51.436Z,18.07
2023-03-17T21:37:18.819Z,24.40
2023-03-17T21:39:45.940Z,20.87
2023-03-17T21:42:12.781Z,21.07
2023-03-17T21:44:40.657Z,20.77
2023-03-17T21:47:07.713Z,19.83
2023-03-17T21:49:34.312Z,23.33
2023-03-17T21:52:01.421Z,23.77
2023-03-17T21:54:28.442Z,20.70
2023-03-17T21:56:54.945Z,15.90
2023-03-17T21:59:21.541Z,24.67
2023-03-17T22:01:52.111Z,24.23
2023-03-17T22:04:18.872Z,22.17
2023-03-17T22:06:45.523Z,19.13
2023-03-17T22:09:15.337Z,22.00
2023-03-17T22:11:43.036Z,30.70
2023-03-17T22:14:12.027Z,18.70
2023-03-17T22:16:38.577Z,27.50
2023-03-17T22:19:05.111Z,19.90
2023-03-17T22:21:31.818Z,24.87
2023-03-17T22:23:58.567Z,24.80
2023-03-17T22:26:25.108Z,19.03
2023-03-17T22:28:51.681Z,17.67
2023-03-17T22:31:23.475Z,21.57
2023-03-17T22:33:52.621Z,18.93
2023-03-17T22:36:19.244Z,20.67
2023-03-17T22:38:47.068Z,22.97
2023-03-17T22:41:16.578Z,21.87
2023-03-17T22:43:43.443Z,22.40
2023-03-17T22:46:11.014Z,23.50
2023-03-17T22:48:37.611Z,21.53
2023-03-17T22:51:06.391Z,21.80
2023-03-17T22:53:33.886Z,26.93
2023-03-17T22:56:00.780Z,20.53
2023-03-17T22:58:27.706Z,22.80
2023-03-17T23:00:55.343Z,26.20
2023-03-17T23:03:22.961Z,16.70
2023-03-17T23:05:51.221Z,17.13
2023-03-17T23:08:19.159Z,17.60
2023-03-17T23:10:48.798Z,17.03
2023-03-17T23:13:16.038Z,19.37
2023-03-17T23:15:42.606Z,18.17
2023-03-17T23:18:10.305Z,21.00
2023-03-17T23:20:39.903Z,18.77
2023-03-17T23:23:08.391Z,16.70
2023-03-17T23:25:36.525Z,15.73
2023-03-17T23:28:03.106Z,18.83
2023-03-17T23:30:30.872Z,13.37
2023-03-17T23:32:58.102Z,20.83
2023-03-17T23:35:25.253Z,20.60
2023-03-17T23:37:52.019Z,21.17
2023-03-17T23:40:18.614Z,21.47
2023-03-17T23:42:48.054Z,20.37
2023-03-17T23:45:18.386Z,20.60
2023-03-17T23:47:47.074Z,13.50
2023-03-17T23:50:14.593Z,17.33
2023-03-17T23:52:42.413Z,19.87
2023-03-17T23:55:11.824Z,14.17
2023-03-17T23:57:38.961Z,18.90
